メインページ
METAR-TAF:

METAR-TAF

空港 :

シカゴ・オヘア国際空港

シカゴ, イリノイ州, アメリカ合衆国

緯度: 41-58-47N, 経度: 087-54-16W, 海抜: 203m

現時点の気象観測

当レポートは51分前の04:51(UTC)に作成
西の風 5kt
気温 21°C
湿度 88%
気圧 1004 hPa
視程: 16.1km
高度1000ftの千切れ雲あり
高度1700ftの曇り

METAR: KORD 210451Z 28005KT 10SM BKN010 OVC017 21/19 A2964 RMK AO2 RAE01 SLP033 P0000 T02110194

時間: 00:42 (05:42 UTC)

予報

当レポートは18分前の05:24(UTC)に作成
予報は21日の 06時(UTC)から 22日の 12時(UTC)まで有効
西/北西の風 10kt
視程: 9.7km
高度800ftの雲は散在している
高度1000ftの曇り
弱いにわか雨
21日の 0800時(UTC)から
北/北西の風 11kt
視程: 9.7km
高度800ftの千切れ雲あり
高度1200ftの曇り
弱いにわか雨
21日の 08時(UTC)から 21日の 12時(UTC)まで一時的に
視程: 4.8km
弱いにわか雨
21日の 1400時(UTC)から
の風 12kt、最大18ktの突風を伴う
視程: 10km
高度800ftの雲は散在している
高度1200ftの曇り
近辺でにわか雨
21日の 1800時(UTC)から
の風 14kt、最大21ktの突風を伴う
視程: 10km
高度2500ftの千切れ雲あり
高度3500ftの曇り
近辺でにわか雨
22日の 0100時(UTC)から
北/北西の風 12kt
視程: 10km
高度2500ftの千切れ雲あり

TAF: KORD 210524Z 2106/2212 29010KT 6SM -SHRA SCT008 OVC010 FM210800 33011KT 6SM -SHRA BKN008 OVC012 TEMPO 2108/2112 3SM -SHRA FM211400 35012G18KT P6SM VCSH SCT008 OVC012 FM211800 36014G21KT P6SM VCSH BKN025 OVC035 FM220100 34012KT P6SM BKN025

4,000以上の空港の気象観測と天気予報(METAR報とTAF報)

利用可能な観測所は地図上に黄色い丸と赤い丸で示す。

丸の上にカーソルを重ねると観測所名を参照できる。

次にクリックすると気象観測と天気予報を参照できる。

マップの切り替え:黒色「×」印の緑ボタンをクリックして拡大、「-」印の緑ボタンをクリックして縮小、緑色の三角印をクリックして隣りの地図に切り替え


METAR-TAF: